Thursday, February 11, 2016
19:20 UTC
  |  Log In   |  Register Free
Airport Search:

Durant Regional - Eaker Field Airport
(KDUA)

Durant Regional - Eaker Field Airport Diagram
No Airport Diagram Available

FAA data valid effective Feb 4 2016 - Mar 31 2016 (unless otherwise noted).

 
 
 
 
 
 
 
 
 
 
 
 
 
 
Current Aviation Weather for KDUA

Weather Summary


The most recent METAR observation for DUA was updated at: 12:55 UTC
METAR for KDUA is not available. Closest METAR is for KGYI
KDUA  (most recent observation was updatred at 11:18 UTC)
111855Z AUTO 01007KT 250V030 10SM CLR 19/02 A3010 RMK AO2

KGYI  (19.5 nm NE)   (most recent observation was updated at 11:18 UTC)
111855Z AUTO 03007KT 10SM CLR 20/02 A3011 RMK AO2 T01950017

KAQR  (30.0 nm SW)   (most recent observation was updated at 11:18 UTC)
111855Z AUTO 36009KT CLR 20/00 A3012 RMK AO2

TAF for KDUA is not available.
GlobalAir.com is loading additional information.
 Current Weather at DUA
64.0 F° (18.0 C°)

Northeast winds at 12.7 mph
Pressure:
30.12 in
Humidity:
34%
Wind:
Northeast at 12.7 mph
Dew Point:
35.6 F° (2.0 C°)
Visibility:
10.00 mi
DUA NOAA Radar




Find All Airport Services Find A Hotel Find A Rental Car Find A Golf Course Find A Restaurant $100 Hamburger



Airport Weather Forecast for KDUA

Translated METAR for KDUA (1855 UTC)
METAR:
KDUA 111855Z AUTO 01007KT 250V030 10SM CLR 19/02 A3010 RMK AO2
Conditions at:
KDUA (Durant Rgnl - Eaker Field, OK) observed 1855 UTC 11 February 2016
Temperature:
19°C (66.2°F)
Dewpoint:
2°C (35.6°F) [RH = 32.2]
Pressure:
30.1 inches Hg (1019.3 mb)
Winds:
from the N (010 degrees) at 8.1 mph (7 knots: 3.6 m/s)
Visibility:
10 mile(s)
Ceiling:
at least 12,000 feet AGL
Clouds:
Clear below 12,000 feet AGL
Remarks:
site is un-manned
site is automated and HAS a precipitation sensor

Translated TAF for TAF for DUA is not available. Refer to local area forecast.
FBO's on the Field
FBO Company Facility Photos Services Transportation Aviation Fuel Prices: Prices include tax
Catering Weather Repair Courtesy Rental Type 100LL JetA JetA+ MOGAS 8087
 
D/W Aviation

This FBO has not yet been rated
FS:Avfuel
Last Updated: Feb-08
Login to update fuel prices
SS:
Contact D/W AviationMore FBO Information
 
Add another FBO Facility Photos Catering Weather Repair Courtesy Rental Type 100LL JetA JetA+ MOGAS 8087
Services Transportation Aviation Fuel Prices: Prices include tax


model-print
model-print
model-print
model-print